sensor_id;sensor_type;location;lat;lon;timestamp;temperature;humidity
13268;DHT22;6702;47.068;15.458;2022-09-09T00:01:35;18.30;99.90
13268;DHT22;6702;47.068;15.458;2022-09-09T00:04:41;18.30;99.90
13268;DHT22;6702;47.068;15.458;2022-09-09T00:07:49;18.30;99.90
13268;DHT22;6702;47.068;15.458;2022-09-09T00:10:58;18.20;99.90
13268;DHT22;6702;47.068;15.458;2022-09-09T00:14:08;18.20;99.90
13268;DHT22;6702;47.068;15.458;2022-09-09T00:17:25;18.10;99.90
13268;DHT22;6702;47.068;15.458;2022-09-09T00:20:35;18.10;99.90
13268;DHT22;6702;47.068;15.458;2022-09-09T00:23:46;18.00;99.90
13268;DHT22;6702;47.068;15.458;2022-09-09T00:26:55;17.90;99.90
13268;DHT22;6702;47.068;15.458;2022-09-09T00:30:12;17.90;99.90
13268;DHT22;6702;47.068;15.458;2022-09-09T00:33:18;17.70;99.90
13268;DHT22;6702;47.068;15.458;2022-09-09T00:36:26;17.70;99.90
13268;DHT22;6702;47.068;15.458;2022-09-09T00:39:36;17.50;99.90
13268;DHT22;6702;47.068;15.458;2022-09-09T00:42:42;17.50;99.90
13268;DHT22;6702;47.068;15.458;2022-09-09T00:49:39;17.40;99.90
13268;DHT22;6702;47.068;15.458;2022-09-09T00:52:50;17.40;99.90
13268;DHT22;6702;47.068;15.458;2022-09-09T00:56:03;17.40;99.90
13268;DHT22;6702;47.068;15.458;2022-09-09T00:59:16;17.30;99.90
13268;DHT22;6702;47.068;15.458;2022-09-09T01:02:32;17.20;99.90
13268;DHT22;6702;47.068;15.458;2022-09-09T01:05:42;17.10;99.90
13268;DHT22;6702;47.068;15.458;2022-09-09T01:09:10;17.10;99.90
13268;DHT22;6702;47.068;15.458;2022-09-09T01:12:17;17.10;99.90
13268;DHT22;6702;47.068;15.458;2022-09-09T01:15:24;17.10;99.90
13268;DHT22;6702;47.068;15.458;2022-09-09T01:18:32;17.00;99.90
13268;DHT22;6702;47.068;15.458;2022-09-09T01:21:42;16.90;99.90
13268;DHT22;6702;47.068;15.458;2022-09-09T01:25:06;16.90;99.90
13268;DHT22;6702;47.068;15.458;2022-09-09T01:28:20;16.80;99.90
13268;DHT22;6702;47.068;15.458;2022-09-09T01:31:28;16.70;99.90
13268;DHT22;6702;47.068;15.458;2022-09-09T01:34:36;16.80;99.90
13268;DHT22;6702;47.068;15.458;2022-09-09T01:37:42;16.70;99.90
13268;DHT22;6702;47.068;15.458;2022-09-09T01:40:45;16.70;99.90
13268;DHT22;6702;47.068;15.458;2022-09-09T01:43:50;16.70;99.90
13268;DHT22;6702;47.068;15.458;2022-09-09T01:46:53;16.80;99.90
13268;DHT22;6702;47.068;15.458;2022-09-09T01:49:56;16.70;99.90
13268;DHT22;6702;47.068;15.458;2022-09-09T01:53:01;16.70;99.90
13268;DHT22;6702;47.068;15.458;2022-09-09T01:56:13;16.70;99.90
13268;DHT22;6702;47.068;15.458;2022-09-09T01:59:33;16.60;99.90
13268;DHT22;6702;47.068;15.458;2022-09-09T02:02:44;16.60;99.90
13268;DHT22;6702;47.068;15.458;2022-09-09T02:05:53;16.60;99.90
13268;DHT22;6702;47.068;15.458;2022-09-09T02:09:00;16.50;99.90
13268;DHT22;6702;47.068;15.458;2022-09-09T02:12:09;16.60;99.90
13268;DHT22;6702;47.068;15.458;2022-09-09T02:15:19;16.50;99.90
13268;DHT22;6702;47.068;15.458;2022-09-09T02:18:27;16.50;99.90
13268;DHT22;6702;47.068;15.458;2022-09-09T02:21:31;16.50;99.90
13268;DHT22;6702;47.068;15.458;2022-09-09T02:24:37;16.50;99.90
13268;DHT22;6702;47.068;15.458;2022-09-09T02:27:44;16.50;99.90
13268;DHT22;6702;47.068;15.458;2022-09-09T02:30:50;16.40;99.90
13268;DHT22;6702;47.068;15.458;2022-09-09T02:33:59;16.40;99.90
13268;DHT22;6702;47.068;15.458;2022-09-09T02:37:04;16.40;99.90
13268;DHT22;6702;47.068;15.458;2022-09-09T02:40:11;16.50;99.90
13268;DHT22;6702;47.068;15.458;2022-09-09T02:43:15;16.60;99.90
13268;DHT22;6702;47.068;15.458;2022-09-09T02:46:32;16.60;99.90
13268;DHT22;6702;47.068;15.458;2022-09-09T02:49:50;16.60;99.90
13268;DHT22;6702;47.068;15.458;2022-09-09T02:53:06;16.60;99.90
13268;DHT22;6702;47.068;15.458;2022-09-09T02:56:15;16.70;99.90
13268;DHT22;6702;47.068;15.458;2022-09-09T02:59:19;16.80;99.90
13268;DHT22;6702;47.068;15.458;2022-09-09T03:02:24;16.80;99.90
13268;DHT22;6702;47.068;15.458;2022-09-09T03:05:27;16.90;99.90
13268;DHT22;6702;47.068;15.458;2022-09-09T03:08:30;16.90;99.90
13268;DHT22;6702;47.068;15.458;2022-09-09T03:11:33;16.90;99.90
13268;DHT22;6702;47.068;15.458;2022-09-09T03:14:37;16.80;99.90
13268;DHT22;6702;47.068;15.458;2022-09-09T03:17:42;16.80;99.90
13268;DHT22;6702;47.068;15.458;2022-09-09T03:20:46;16.80;99.90
13268;DHT22;6702;47.068;15.458;2022-09-09T03:23:50;16.90;99.90
13268;DHT22;6702;47.068;15.458;2022-09-09T03:26:53;16.90;99.90
13268;DHT22;6702;47.068;15.458;2022-09-09T03:29:57;17.00;99.90
13268;DHT22;6702;47.068;15.458;2022-09-09T03:33:02;16.90;99.90
13268;DHT22;6702;47.068;15.458;2022-09-09T03:36:05;16.90;99.90
13268;DHT22;6702;47.068;15.458;2022-09-09T03:39:09;16.90;99.90
13268;DHT22;6702;47.068;15.458;2022-09-09T03:42:12;16.80;99.90
13268;DHT22;6702;47.068;15.458;2022-09-09T03:45:20;16.70;99.90
13268;DHT22;6702;47.068;15.458;2022-09-09T03:48:25;16.70;99.90
13268;DHT22;6702;47.068;15.458;2022-09-09T03:51:30;16.70;99.90
13268;DHT22;6702;47.068;15.458;2022-09-09T03:54:33;16.70;99.90
13268;DHT22;6702;47.068;15.458;2022-09-09T03:57:37;16.60;99.90
13268;DHT22;6702;47.068;15.458;2022-09-09T04:00:41;16.50;99.90
13268;DHT22;6702;47.068;15.458;2022-09-09T04:03:48;16.50;99.90
13268;DHT22;6702;47.068;15.458;2022-09-09T04:06:52;16.50;99.90
13268;DHT22;6702;47.068;15.458;2022-09-09T04:09:55;16.50;99.90
13268;DHT22;6702;47.068;15.458;2022-09-09T04:12:58;16.50;99.90
13268;DHT22;6702;47.068;15.458;2022-09-09T04:16:03;16.40;99.90
13268;DHT22;6702;47.068;15.458;2022-09-09T04:19:07;16.40;99.90
13268;DHT22;6702;47.068;15.458;2022-09-09T04:22:10;16.40;99.90
13268;DHT22;6702;47.068;15.458;2022-09-09T04:25:14;16.40;99.90
13268;DHT22;6702;47.068;15.458;2022-09-09T04:28:18;16.40;99.90
13268;DHT22;6702;47.068;15.458;2022-09-09T04:31:22;16.40;99.90
13268;DHT22;6702;47.068;15.458;2022-09-09T04:34:27;16.40;99.90
13268;DHT22;6702;47.068;15.458;2022-09-09T04:37:31;16.50;99.90
13268;DHT22;6702;47.068;15.458;2022-09-09T04:40:34;16.40;99.90
13268;DHT22;6702;47.068;15.458;2022-09-09T04:43:37;16.40;99.90
13268;DHT22;6702;47.068;15.458;2022-09-09T04:46:41;16.40;99.90
13268;DHT22;6702;47.068;15.458;2022-09-09T04:49:45;16.40;99.90
13268;DHT22;6702;47.068;15.458;2022-09-09T04:52:49;16.40;99.90
13268;DHT22;6702;47.068;15.458;2022-09-09T04:55:52;16.50;99.90
13268;DHT22;6702;47.068;15.458;2022-09-09T04:58:56;16.50;99.90
13268;DHT22;6702;47.068;15.458;2022-09-09T05:01:59;16.50;99.90
13268;DHT22;6702;47.068;15.458;2022-09-09T05:05:04;16.50;99.90
13268;DHT22;6702;47.068;15.458;2022-09-09T05:08:09;16.50;99.90
13268;DHT22;6702;47.068;15.458;2022-09-09T05:11:19;16.50;99.90
13268;DHT22;6702;47.068;15.458;2022-09-09T05:14:23;16.50;99.90
13268;DHT22;6702;47.068;15.458;2022-09-09T05:17:26;16.50;99.90
13268;DHT22;6702;47.068;15.458;2022-09-09T05:20:31;16.50;99.90
13268;DHT22;6702;47.068;15.458;2022-09-09T05:23:34;16.60;99.90
13268;DHT22;6702;47.068;15.458;2022-09-09T05:26:38;16.50;99.90
13268;DHT22;6702;47.068;15.458;2022-09-09T05:29:41;16.60;99.90
13268;DHT22;6702;47.068;15.458;2022-09-09T05:32:46;16.70;99.90
13268;DHT22;6702;47.068;15.458;2022-09-09T05:35:56;16.80;99.90
13268;DHT22;6702;47.068;15.458;2022-09-09T05:39:00;16.90;99.90
13268;DHT22;6702;47.068;15.458;2022-09-09T05:42:03;17.00;99.90
13268;DHT22;6702;47.068;15.458;2022-09-09T05:45:07;17.10;99.90
13268;DHT22;6702;47.068;15.458;2022-09-09T05:48:11;17.10;99.90
13268;DHT22;6702;47.068;15.458;2022-09-09T05:51:17;17.20;99.90
13268;DHT22;6702;47.068;15.458;2022-09-09T05:54:20;17.30;99.90
13268;DHT22;6702;47.068;15.458;2022-09-09T05:57:23;17.40;99.90
13268;DHT22;6702;47.068;15.458;2022-09-09T06:00:26;17.50;99.90
13268;DHT22;6702;47.068;15.458;2022-09-09T06:03:34;17.70;99.90
13268;DHT22;6702;47.068;15.458;2022-09-09T06:06:39;17.90;99.90
13268;DHT22;6702;47.068;15.458;2022-09-09T06:09:43;18.10;99.90
13268;DHT22;6702;47.068;15.458;2022-09-09T06:12:46;18.20;99.90
13268;DHT22;6702;47.068;15.458;2022-09-09T06:15:50;18.30;99.90
13268;DHT22;6702;47.068;15.458;2022-09-09T06:18:54;18.40;99.90
13268;DHT22;6702;47.068;15.458;2022-09-09T06:21:59;18.40;99.90
13268;DHT22;6702;47.068;15.458;2022-09-09T06:25:03;18.50;99.90
13268;DHT22;6702;47.068;15.458;2022-09-09T06:28:06;18.70;99.90
13268;DHT22;6702;47.068;15.458;2022-09-09T06:31:11;19.00;99.90
13268;DHT22;6702;47.068;15.458;2022-09-09T06:34:14;19.70;99.90
13268;DHT22;6702;47.068;15.458;2022-09-09T06:37:19;20.40;99.90
13268;DHT22;6702;47.068;15.458;2022-09-09T06:40:22;20.80;99.90
13268;DHT22;6702;47.068;15.458;2022-09-09T06:43:25;21.90;99.90
13268;DHT22;6702;47.068;15.458;2022-09-09T06:46:30;23.80;96.80
13268;DHT22;6702;47.068;15.458;2022-09-09T06:49:35;24.80;93.80
13268;DHT22;6702;47.068;15.458;2022-09-09T06:52:39;26.00;90.50
13268;DHT22;6702;47.068;15.458;2022-09-09T06:55:42;26.90;83.70
13268;DHT22;6702;47.068;15.458;2022-09-09T06:58:48;26.30;80.80
13268;DHT22;6702;47.068;15.458;2022-09-09T07:01:51;25.40;81.90
13268;DHT22;6702;47.068;15.458;2022-09-09T07:04:57;24.60;83.80
13268;DHT22;6702;47.068;15.458;2022-09-09T07:08:02;23.90;86.80
13268;DHT22;6702;47.068;15.458;2022-09-09T07:11:07;23.20;88.30
13268;DHT22;6702;47.068;15.458;2022-09-09T07:14:14;22.60;89.90
13268;DHT22;6702;47.068;15.458;2022-09-09T07:17:17;22.10;90.90
13268;DHT22;6702;47.068;15.458;2022-09-09T07:20:20;21.70;92.00
13268;DHT22;6702;47.068;15.458;2022-09-09T07:23:25;21.30;92.90
13268;DHT22;6702;47.068;15.458;2022-09-09T07:26:30;21.20;93.70
13268;DHT22;6702;47.068;15.458;2022-09-09T07:29:33;21.00;94.10
13268;DHT22;6702;47.068;15.458;2022-09-09T07:32:36;20.80;94.50
13268;DHT22;6702;47.068;15.458;2022-09-09T07:35:39;20.70;96.30
13268;DHT22;6702;47.068;15.458;2022-09-09T07:38:46;20.70;96.40
13268;DHT22;6702;47.068;15.458;2022-09-09T07:41:49;20.60;96.80
13268;DHT22;6702;47.068;15.458;2022-09-09T07:44:53;20.50;96.70
13268;DHT22;6702;47.068;15.458;2022-09-09T07:47:56;20.50;96.90
13268;DHT22;6702;47.068;15.458;2022-09-09T07:51:05;20.50;97.70
13268;DHT22;6702;47.068;15.458;2022-09-09T07:54:12;20.50;98.50
13268;DHT22;6702;47.068;15.458;2022-09-09T07:57:15;20.50;99.00
13268;DHT22;6702;47.068;15.458;2022-09-09T08:00:20;20.50;99.20
13268;DHT22;6702;47.068;15.458;2022-09-09T08:03:24;20.50;99.80
13268;DHT22;6702;47.068;15.458;2022-09-09T08:06:28;20.50;99.90
13268;DHT22;6702;47.068;15.458;2022-09-09T08:09:32;20.50;99.90
13268;DHT22;6702;47.068;15.458;2022-09-09T08:12:35;20.50;99.90
13268;DHT22;6702;47.068;15.458;2022-09-09T08:15:38;20.60;99.60
13268;DHT22;6702;47.068;15.458;2022-09-09T08:18:43;20.50;98.80
13268;DHT22;6702;47.068;15.458;2022-09-09T08:21:46;20.40;98.30
13268;DHT22;6702;47.068;15.458;2022-09-09T08:24:52;20.40;98.20
13268;DHT22;6702;47.068;15.458;2022-09-09T08:27:55;20.40;98.50
13268;DHT22;6702;47.068;15.458;2022-09-09T08:31:05;20.50;98.70
13268;DHT22;6702;47.068;15.458;2022-09-09T08:34:09;20.60;98.80
13268;DHT22;6702;47.068;15.458;2022-09-09T08:37:12;20.70;98.40
13268;DHT22;6702;47.068;15.458;2022-09-09T08:40:21;20.70;98.20
13268;DHT22;6702;47.068;15.458;2022-09-09T08:43:26;20.70;98.10
13268;DHT22;6702;47.068;15.458;2022-09-09T08:46:38;20.60;98.30
13268;DHT22;6702;47.068;15.458;2022-09-09T08:50:00;20.70;98.80
13268;DHT22;6702;47.068;15.458;2022-09-09T08:53:09;20.70;98.80
13268;DHT22;6702;47.068;15.458;2022-09-09T08:56:18;20.70;98.90
13268;DHT22;6702;47.068;15.458;2022-09-09T08:59:21;20.70;98.70
13268;DHT22;6702;47.068;15.458;2022-09-09T09:02:28;20.70;98.90
13268;DHT22;6702;47.068;15.458;2022-09-09T09:05:40;20.90;98.80
13268;DHT22;6702;47.068;15.458;2022-09-09T09:08:47;21.20;98.30
13268;DHT22;6702;47.068;15.458;2022-09-09T09:11:57;21.70;97.50
13268;DHT22;6702;47.068;15.458;2022-09-09T09:15:05;22.30;96.40
13268;DHT22;6702;47.068;15.458;2022-09-09T09:18:12;22.70;95.40
13268;DHT22;6702;47.068;15.458;2022-09-09T09:21:21;22.90;94.10
13268;DHT22;6702;47.068;15.458;2022-09-09T09:24:36;23.10;93.80
13268;DHT22;6702;47.068;15.458;2022-09-09T09:27:50;23.40;92.70
13268;DHT22;6702;47.068;15.458;2022-09-09T09:30:59;27.20;90.30
13268;DHT22;6702;47.068;15.458;2022-09-09T09:34:04;31.50;67.60
13268;DHT22;6702;47.068;15.458;2022-09-09T09:37:16;32.30;58.10
13268;DHT22;6702;47.068;15.458;2022-09-09T09:40:22;31.50;56.60
13268;DHT22;6702;47.068;15.458;2022-09-09T09:43:29;31.40;56.10
13268;DHT22;6702;47.068;15.458;2022-09-09T09:46:32;31.00;56.70
13268;DHT22;6702;47.068;15.458;2022-09-09T09:49:35;30.30;57.60
13268;DHT22;6702;47.068;15.458;2022-09-09T09:52:41;29.60;59.00
13268;DHT22;6702;47.068;15.458;2022-09-09T09:55:53;28.80;60.40
13268;DHT22;6702;47.068;15.458;2022-09-09T09:58:58;28.30;61.10
13268;DHT22;6702;47.068;15.458;2022-09-09T10:02:18;27.80;61.90
13268;DHT22;6702;47.068;15.458;2022-09-09T10:05:24;27.50;63.10
13268;DHT22;6702;47.068;15.458;2022-09-09T10:08:28;27.70;62.80
13268;DHT22;6702;47.068;15.458;2022-09-09T10:11:43;28.30;62.40
13268;DHT22;6702;47.068;15.458;2022-09-09T10:14:53;29.00;60.30
13268;DHT22;6702;47.068;15.458;2022-09-09T10:18:10;29.60;58.60
13268;DHT22;6702;47.068;15.458;2022-09-09T10:21:26;29.90;57.20
13268;DHT22;6702;47.068;15.458;2022-09-09T10:25:00;30.10;57.30
13268;DHT22;6702;47.068;15.458;2022-09-09T10:28:25;29.80;56.00
13268;DHT22;6702;47.068;15.458;2022-09-09T10:31:41;29.40;57.10
13268;DHT22;6702;47.068;15.458;2022-09-09T10:34:55;29.00;57.60
13268;DHT22;6702;47.068;15.458;2022-09-09T10:38:20;28.80;58.90
13268;DHT22;6702;47.068;15.458;2022-09-09T10:41:40;29.00;58.30
13268;DHT22;6702;47.068;15.458;2022-09-09T10:44:56;29.20;56.70
13268;DHT22;6702;47.068;15.458;2022-09-09T10:48:23;29.10;56.60
13268;DHT22;6702;47.068;15.458;2022-09-09T10:51:37;29.20;56.70
13268;DHT22;6702;47.068;15.458;2022-09-09T10:54:54;28.90;56.50
13268;DHT22;6702;47.068;15.458;2022-09-09T10:58:02;28.20;57.00
13268;DHT22;6702;47.068;15.458;2022-09-09T11:01:12;27.60;58.40
13268;DHT22;6702;47.068;15.458;2022-09-09T11:04:22;27.00;59.80
13268;DHT22;6702;47.068;15.458;2022-09-09T11:07:31;26.40;61.10
13268;DHT22;6702;47.068;15.458;2022-09-09T11:10:41;25.80;62.90
13268;DHT22;6702;47.068;15.458;2022-09-09T11:13:52;25.40;62.90
13268;DHT22;6702;47.068;15.458;2022-09-09T11:16:59;25.20;64.50
13268;DHT22;6702;47.068;15.458;2022-09-09T11:20:11;24.90;65.80
13268;DHT22;6702;47.068;15.458;2022-09-09T11:23:18;24.80;66.40
13268;DHT22;6702;47.068;15.458;2022-09-09T11:26:30;24.60;67.60
13268;DHT22;6702;47.068;15.458;2022-09-09T11:30:11;24.50;68.10
13268;DHT22;6702;47.068;15.458;2022-09-09T11:33:58;24.50;69.70
13268;DHT22;6702;47.068;15.458;2022-09-09T11:37:21;24.50;71.20
13268;DHT22;6702;47.068;15.458;2022-09-09T11:40:28;24.70;71.70
13268;DHT22;6702;47.068;15.458;2022-09-09T11:43:39;24.80;72.30
13268;DHT22;6702;47.068;15.458;2022-09-09T11:46:46;24.80;74.30
13268;DHT22;6702;47.068;15.458;2022-09-09T11:49:52;24.80;75.00
13268;DHT22;6702;47.068;15.458;2022-09-09T11:53:18;24.90;75.80
13268;DHT22;6702;47.068;15.458;2022-09-09T11:56:28;25.00;76.20
13268;DHT22;6702;47.068;15.458;2022-09-09T11:59:33;25.10;75.50
13268;DHT22;6702;47.068;15.458;2022-09-09T12:02:37;25.20;75.80
13268;DHT22;6702;47.068;15.458;2022-09-09T12:05:51;25.30;75.10
13268;DHT22;6702;47.068;15.458;2022-09-09T12:08:58;25.30;74.10
13268;DHT22;6702;47.068;15.458;2022-09-09T12:12:28;25.40;74.90
13268;DHT22;6702;47.068;15.458;2022-09-09T12:15:31;25.40;73.70
13268;DHT22;6702;47.068;15.458;2022-09-09T12:18:36;25.20;73.00
13268;DHT22;6702;47.068;15.458;2022-09-09T12:21:46;25.10;73.30
13268;DHT22;6702;47.068;15.458;2022-09-09T12:25:00;25.00;74.10
13268;DHT22;6702;47.068;15.458;2022-09-09T12:28:14;24.90;73.20
13268;DHT22;6702;47.068;15.458;2022-09-09T12:31:23;24.70;73.90
13268;DHT22;6702;47.068;15.458;2022-09-09T12:34:39;24.50;74.00
13268;DHT22;6702;47.068;15.458;2022-09-09T12:37:46;24.40;75.40
13268;DHT22;6702;47.068;15.458;2022-09-09T12:40:56;24.50;76.30
13268;DHT22;6702;47.068;15.458;2022-09-09T12:44:04;24.50;75.60
13268;DHT22;6702;47.068;15.458;2022-09-09T12:47:10;24.40;75.20
13268;DHT22;6702;47.068;15.458;2022-09-09T12:50:17;24.40;75.00
13268;DHT22;6702;47.068;15.458;2022-09-09T12:53:23;24.30;74.10
13268;DHT22;6702;47.068;15.458;2022-09-09T12:56:31;24.30;73.70
13268;DHT22;6702;47.068;15.458;2022-09-09T12:59:37;24.10;72.90
13268;DHT22;6702;47.068;15.458;2022-09-09T13:02:50;24.10;74.80
13268;DHT22;6702;47.068;15.458;2022-09-09T13:05:57;24.00;75.00
13268;DHT22;6702;47.068;15.458;2022-09-09T13:09:02;23.90;75.00
13268;DHT22;6702;47.068;15.458;2022-09-09T13:12:13;23.90;76.40
13268;DHT22;6702;47.068;15.458;2022-09-09T13:15:21;23.70;76.80
13268;DHT22;6702;47.068;15.458;2022-09-09T13:18:28;23.60;77.70
13268;DHT22;6702;47.068;15.458;2022-09-09T13:21:33;23.60;79.10
13268;DHT22;6702;47.068;15.458;2022-09-09T13:24:36;23.50;79.50
13268;DHT22;6702;47.068;15.458;2022-09-09T13:27:50;23.30;80.10
13268;DHT22;6702;47.068;15.458;2022-09-09T13:30:57;23.30;81.00
13268;DHT22;6702;47.068;15.458;2022-09-09T13:34:11;23.30;81.30
13268;DHT22;6702;47.068;15.458;2022-09-09T13:37:21;23.50;81.40
13268;DHT22;6702;47.068;15.458;2022-09-09T13:40:26;23.50;81.70
13268;DHT22;6702;47.068;15.458;2022-09-09T13:43:34;23.40;82.00
13268;DHT22;6702;47.068;15.458;2022-09-09T13:46:39;23.20;82.30
13268;DHT22;6702;47.068;15.458;2022-09-09T13:49:42;23.20;82.10
13268;DHT22;6702;47.068;15.458;2022-09-09T13:52:47;23.10;81.60
13268;DHT22;6702;47.068;15.458;2022-09-09T13:55:52;22.90;82.90
13268;DHT22;6702;47.068;15.458;2022-09-09T13:58:56;22.80;83.90
13268;DHT22;6702;47.068;15.458;2022-09-09T14:02:00;22.70;84.90
13268;DHT22;6702;47.068;15.458;2022-09-09T14:05:04;22.60;85.60
13268;DHT22;6702;47.068;15.458;2022-09-09T14:08:09;22.50;86.70
13268;DHT22;6702;47.068;15.458;2022-09-09T14:11:16;22.40;87.90
13268;DHT22;6702;47.068;15.458;2022-09-09T14:14:21;22.50;89.80
13268;DHT22;6702;47.068;15.458;2022-09-09T14:17:24;22.50;90.40
13268;DHT22;6702;47.068;15.458;2022-09-09T14:20:31;22.50;90.80
13268;DHT22;6702;47.068;15.458;2022-09-09T14:23:34;22.40;91.70
13268;DHT22;6702;47.068;15.458;2022-09-09T14:26:37;22.40;92.40
13268;DHT22;6702;47.068;15.458;2022-09-09T14:29:42;22.40;93.40
13268;DHT22;6702;47.068;15.458;2022-09-09T14:32:46;22.50;93.60
13268;DHT22;6702;47.068;15.458;2022-09-09T14:35:55;22.50;93.70
13268;DHT22;6702;47.068;15.458;2022-09-09T14:38:58;22.50;93.90
13268;DHT22;6702;47.068;15.458;2022-09-09T14:42:01;22.50;94.30
13268;DHT22;6702;47.068;15.458;2022-09-09T14:45:07;22.30;94.80
13268;DHT22;6702;47.068;15.458;2022-09-09T14:48:11;22.20;95.20
13268;DHT22;6702;47.068;15.458;2022-09-09T14:51:16;22.20;95.60
13268;DHT22;6702;47.068;15.458;2022-09-09T14:54:21;22.00;96.10
13268;DHT22;6702;47.068;15.458;2022-09-09T14:57:24;21.90;96.50
13268;DHT22;6702;47.068;15.458;2022-09-09T15:00:29;21.80;96.80
13268;DHT22;6702;47.068;15.458;2022-09-09T15:03:32;21.70;97.30
13268;DHT22;6702;47.068;15.458;2022-09-09T15:06:36;21.70;97.60
13268;DHT22;6702;47.068;15.458;2022-09-09T15:09:40;21.70;97.50
13268;DHT22;6702;47.068;15.458;2022-09-09T15:12:44;21.70;97.50
13268;DHT22;6702;47.068;15.458;2022-09-09T15:15:48;21.70;98.60
13268;DHT22;6702;47.068;15.458;2022-09-09T15:18:54;21.70;99.40
13268;DHT22;6702;47.068;15.458;2022-09-09T15:21:57;21.70;99.90
13268;DHT22;6702;47.068;15.458;2022-09-09T15:25:01;21.70;99.90
13268;DHT22;6702;47.068;15.458;2022-09-09T15:28:04;21.70;99.90
13268;DHT22;6702;47.068;15.458;2022-09-09T15:31:12;21.60;99.90
13268;DHT22;6702;47.068;15.458;2022-09-09T15:34:16;21.60;99.90
13268;DHT22;6702;47.068;15.458;2022-09-09T15:37:19;21.70;99.90
13268;DHT22;6702;47.068;15.458;2022-09-09T15:40:22;21.70;99.90
13268;DHT22;6702;47.068;15.458;2022-09-09T15:43:25;21.60;99.90
13268;DHT22;6702;47.068;15.458;2022-09-09T15:46:32;21.50;99.90
13268;DHT22;6702;47.068;15.458;2022-09-09T15:49:35;21.60;99.90
13268;DHT22;6702;47.068;15.458;2022-09-09T15:52:38;21.60;99.90
13268;DHT22;6702;47.068;15.458;2022-09-09T15:55:42;21.60;99.90
13268;DHT22;6702;47.068;15.458;2022-09-09T15:58:45;21.60;99.90
13268;DHT22;6702;47.068;15.458;2022-09-09T16:01:50;21.60;99.90
13268;DHT22;6702;47.068;15.458;2022-09-09T16:04:53;21.60;99.90
13268;DHT22;6702;47.068;15.458;2022-09-09T16:07:57;21.50;99.90
13268;DHT22;6702;47.068;15.458;2022-09-09T16:11:06;21.50;99.90
13268;DHT22;6702;47.068;15.458;2022-09-09T16:14:13;21.50;99.90
13268;DHT22;6702;47.068;15.458;2022-09-09T16:17:18;21.40;99.90
13268;DHT22;6702;47.068;15.458;2022-09-09T16:20:22;21.40;99.90
13268;DHT22;6702;47.068;15.458;2022-09-09T16:23:25;21.30;99.90
13268;DHT22;6702;47.068;15.458;2022-09-09T16:26:30;21.30;99.90
13268;DHT22;6702;47.068;15.458;2022-09-09T16:29:33;21.30;99.90
13268;DHT22;6702;47.068;15.458;2022-09-09T16:32:38;21.30;99.90
13268;DHT22;6702;47.068;15.458;2022-09-09T16:35:41;21.30;99.90
13268;DHT22;6702;47.068;15.458;2022-09-09T16:38:44;21.30;99.90
13268;DHT22;6702;47.068;15.458;2022-09-09T16:41:48;21.30;99.90
13268;DHT22;6702;47.068;15.458;2022-09-09T16:44:51;21.20;99.90
13268;DHT22;6702;47.068;15.458;2022-09-09T16:47:56;21.10;99.90
13268;DHT22;6702;47.068;15.458;2022-09-09T16:51:02;21.10;99.90
13268;DHT22;6702;47.068;15.458;2022-09-09T16:54:07;21.00;99.90
13268;DHT22;6702;47.068;15.458;2022-09-09T16:57:10;21.00;99.90
13268;DHT22;6702;47.068;15.458;2022-09-09T17:00:13;21.00;99.90
13268;DHT22;6702;47.068;15.458;2022-09-09T17:03:19;20.90;99.90
13268;DHT22;6702;47.068;15.458;2022-09-09T17:06:22;20.90;99.90
13268;DHT22;6702;47.068;15.458;2022-09-09T17:09:26;20.80;99.90
13268;DHT22;6702;47.068;15.458;2022-09-09T17:12:31;20.80;99.90
13268;DHT22;6702;47.068;15.458;2022-09-09T17:15:39;20.80;99.90
13268;DHT22;6702;47.068;15.458;2022-09-09T17:18:45;20.80;99.90
13268;DHT22;6702;47.068;15.458;2022-09-09T17:21:48;20.70;99.90
13268;DHT22;6702;47.068;15.458;2022-09-09T17:25:11;20.60;99.90
13268;DHT22;6702;47.068;15.458;2022-09-09T17:28:14;20.70;99.90
13268;DHT22;6702;47.068;15.458;2022-09-09T17:31:18;20.60;99.90
13268;DHT22;6702;47.068;15.458;2022-09-09T17:34:23;20.60;99.90
13268;DHT22;6702;47.068;15.458;2022-09-09T17:37:27;20.60;99.90
13268;DHT22;6702;47.068;15.458;2022-09-09T17:40:30;20.50;99.90
13268;DHT22;6702;47.068;15.458;2022-09-09T17:43:33;20.50;99.90
13268;DHT22;6702;47.068;15.458;2022-09-09T17:46:39;20.50;99.90
13268;DHT22;6702;47.068;15.458;2022-09-09T17:49:44;20.40;99.90
13268;DHT22;6702;47.068;15.458;2022-09-09T17:52:48;20.40;99.90
13268;DHT22;6702;47.068;15.458;2022-09-09T17:55:51;20.40;99.90
13268;DHT22;6702;47.068;15.458;2022-09-09T17:58:54;20.40;99.90
13268;DHT22;6702;47.068;15.458;2022-09-09T18:01:57;20.30;99.90
13268;DHT22;6702;47.068;15.458;2022-09-09T18:05:02;20.30;99.90
13268;DHT22;6702;47.068;15.458;2022-09-09T18:08:05;20.20;99.90
13268;DHT22;6702;47.068;15.458;2022-09-09T18:11:09;20.20;99.90
13268;DHT22;6702;47.068;15.458;2022-09-09T18:14:14;20.20;99.90
13268;DHT22;6702;47.068;15.458;2022-09-09T18:17:18;20.10;99.90
13268;DHT22;6702;47.068;15.458;2022-09-09T18:20:23;20.10;99.90
13268;DHT22;6702;47.068;15.458;2022-09-09T18:23:26;20.00;99.90
13268;DHT22;6702;47.068;15.458;2022-09-09T18:26:30;20.00;99.90
13268;DHT22;6702;47.068;15.458;2022-09-09T18:29:34;19.90;99.90
13268;DHT22;6702;47.068;15.458;2022-09-09T18:32:37;19.90;99.90
13268;DHT22;6702;47.068;15.458;2022-09-09T18:35:42;19.90;99.90
13268;DHT22;6702;47.068;15.458;2022-09-09T18:38:47;19.90;99.90
13268;DHT22;6702;47.068;15.458;2022-09-09T18:41:52;19.80;99.90
13268;DHT22;6702;47.068;15.458;2022-09-09T18:44:56;19.70;99.90
13268;DHT22;6702;47.068;15.458;2022-09-09T18:47:59;19.70;99.90
13268;DHT22;6702;47.068;15.458;2022-09-09T18:51:06;19.70;99.90
13268;DHT22;6702;47.068;15.458;2022-09-09T18:54:11;19.70;99.90
13268;DHT22;6702;47.068;15.458;2022-09-09T18:57:15;19.70;99.90
13268;DHT22;6702;47.068;15.458;2022-09-09T19:00:19;19.70;99.90
13268;DHT22;6702;47.068;15.458;2022-09-09T19:03:23;19.70;99.90
13268;DHT22;6702;47.068;15.458;2022-09-09T19:06:30;19.60;99.90
13268;DHT22;6702;47.068;15.458;2022-09-09T19:09:33;19.60;99.90
13268;DHT22;6702;47.068;15.458;2022-09-09T19:12:37;19.60;99.90
13268;DHT22;6702;47.068;15.458;2022-09-09T19:15:42;19.60;99.90
13268;DHT22;6702;47.068;15.458;2022-09-09T19:18:46;19.60;99.90
13268;DHT22;6702;47.068;15.458;2022-09-09T19:21:51;19.50;99.90
13268;DHT22;6702;47.068;15.458;2022-09-09T19:24:56;19.60;99.90
13268;DHT22;6702;47.068;15.458;2022-09-09T19:28:00;19.60;99.90
13268;DHT22;6702;47.068;15.458;2022-09-09T19:31:05;19.60;99.90
13268;DHT22;6702;47.068;15.458;2022-09-09T19:34:09;19.50;99.90
13268;DHT22;6702;47.068;15.458;2022-09-09T19:37:14;19.50;99.90
13268;DHT22;6702;47.068;15.458;2022-09-09T19:40:19;19.50;99.90
13268;DHT22;6702;47.068;15.458;2022-09-09T19:43:24;19.50;99.90